createdAt,value
2023-04-26T00:02:18.447Z,0.73
2023-04-26T00:04:47.838Z,0.40
2023-04-26T00:07:16.473Z,0.77
2023-04-26T00:09:44.724Z,0.90
2023-04-26T00:12:12.769Z,0.45
2023-04-26T00:14:40.631Z,0.77
2023-04-26T00:17:09.726Z,0.55
2023-04-26T00:19:38.557Z,1.02
2023-04-26T00:22:06.507Z,0.50
2023-04-26T00:24:34.520Z,0.80
2023-04-26T00:27:05.257Z,0.57
2023-04-26T00:29:33.276Z,0.50
2023-04-26T00:32:01.231Z,0.95
2023-04-26T00:34:34.985Z,0.43
2023-04-26T00:37:04.051Z,0.63
2023-04-26T00:39:32.472Z,0.95
2023-04-26T00:42:00.356Z,0.35
2023-04-26T00:44:28.188Z,0.57
2023-04-26T00:46:56.706Z,0.50
2023-04-26T00:49:26.925Z,0.60
2023-04-26T00:51:56.591Z,0.68
2023-04-26T00:54:25.621Z,0.40
2023-04-26T00:56:53.439Z,0.55
2023-04-26T00:59:21.823Z,1.08
2023-04-26T01:01:49.890Z,0.70
2023-04-26T01:04:19.229Z,0.82
2023-04-26T01:06:47.463Z,0.57
2023-04-26T01:09:16.607Z,0.57
2023-04-26T01:11:45.167Z,0.77
2023-04-26T01:14:13.090Z,0.32
2023-04-26T01:16:41.317Z,0.77
2023-04-26T01:19:11.082Z,0.82
2023-04-26T01:21:39.444Z,0.38
2023-04-26T01:24:11.659Z,0.47
2023-04-26T01:26:45.227Z,0.65
2023-04-26T01:29:18.639Z,0.60
2023-04-26T01:31:47.843Z,0.63
2023-04-26T01:34:15.863Z,0.68
2023-04-26T01:36:43.737Z,0.73
2023-04-26T01:39:13.482Z,0.70
2023-04-26T01:41:41.209Z,0.45
2023-04-26T01:44:08.987Z,0.75
2023-04-26T01:46:36.719Z,0.70
2023-04-26T01:49:04.606Z,0.73
2023-04-26T01:51:32.630Z,0.70
2023-04-26T01:54:00.477Z,0.55
2023-04-26T01:56:29.746Z,1.05
2023-04-26T01:58:57.571Z,1.05
2023-04-26T02:01:26.244Z,0.55
2023-04-26T02:03:54.157Z,0.82
2023-04-26T02:06:22.226Z,0.82
2023-04-26T02:08:50.194Z,0.75
2023-04-26T02:11:18.218Z,0.80
2023-04-26T02:13:47.386Z,0.98
2023-04-26T02:16:16.409Z,0.60
2023-04-26T02:18:44.727Z,0.98
2023-04-26T02:21:13.065Z,0.80
2023-04-26T02:23:40.782Z,0.55
2023-04-26T02:26:08.529Z,0.60
2023-04-26T02:28:36.684Z,0.60
2023-04-26T02:31:05.960Z,0.82
2023-04-26T02:33:34.521Z,0.73
2023-04-26T02:36:05.771Z,0.90
2023-04-26T02:38:36.326Z,0.95
2023-04-26T02:41:05.590Z,0.45
2023-04-26T02:43:33.546Z,1.00
2023-04-26T02:46:01.465Z,0.63
2023-04-26T02:48:30.936Z,0.75
2023-04-26T02:50:58.864Z,0.98
2023-04-26T02:53:26.647Z,0.60
2023-04-26T02:55:54.370Z,0.90
2023-04-26T02:58:22.710Z,0.60
2023-04-26T03:00:50.726Z,0.93
2023-04-26T03:03:18.725Z,1.08
2023-04-26T03:05:48.064Z,1.23
2023-04-26T03:08:16.001Z,0.43
2023-04-26T03:10:46.307Z,0.73
2023-04-26T03:13:15.081Z,0.95
2023-04-26T03:15:46.607Z,0.70
2023-04-26T03:18:14.494Z,1.02
2023-04-26T03:20:43.206Z,1.30
2023-04-26T03:23:12.279Z,1.20
2023-04-26T03:25:40.007Z,1.20
2023-04-26T03:28:07.938Z,0.95
2023-04-26T03:30:35.704Z,0.63
2023-04-26T03:33:03.555Z,1.25
2023-04-26T03:35:31.554Z,0.93
2023-04-26T03:37:59.262Z,0.40
2023-04-26T03:40:28.323Z,1.10
2023-04-26T03:42:56.033Z,1.17
2023-04-26T03:45:25.146Z,0.95
2023-04-26T03:47:52.851Z,0.65
2023-04-26T03:50:21.248Z,0.80
2023-04-26T03:52:49.075Z,0.98
2023-04-26T03:55:16.943Z,1.02
2023-04-26T03:57:46.047Z,0.73
2023-04-26T04:00:15.283Z,0.82
2023-04-26T04:02:45.162Z,0.60
2023-04-26T04:05:13.082Z,0.65
2023-04-26T04:07:41.062Z,0.68
2023-04-26T04:10:10.673Z,0.45
2023-04-26T04:12:38.491Z,0.90
2023-04-26T04:15:09.329Z,0.85
2023-04-26T04:17:38.566Z,0.95
2023-04-26T04:20:08.694Z,0.77
2023-04-26T04:22:36.819Z,0.32
2023-04-26T04:25:05.833Z,0.38
2023-04-26T04:27:33.616Z,0.70
2023-04-26T04:30:03.520Z,0.57
2023-04-26T04:32:33.880Z,0.47
2023-04-26T04:35:01.854Z,0.43
2023-04-26T04:37:32.005Z,0.73
2023-04-26T04:40:00.051Z,0.75
2023-04-26T04:42:28.247Z,1.02
2023-04-26T04:44:57.070Z,0.57
2023-04-26T04:47:24.959Z,1.15
2023-04-26T04:49:54.127Z,0.60
2023-04-26T04:52:22.832Z,0.47
2023-04-26T04:54:50.525Z,0.32
2023-04-26T04:57:18.761Z,0.40
2023-04-26T04:59:46.506Z,0.77
2023-04-26T05:02:14.310Z,0.80
2023-04-26T05:04:42.273Z,0.80
2023-04-26T05:07:12.789Z,1.00
2023-04-26T05:09:40.531Z,1.90
2023-04-26T05:12:08.729Z,1.25
2023-04-26T05:14:36.582Z,0.50
2023-04-26T05:17:04.276Z,0.57
2023-04-26T05:19:32.020Z,0.98
2023-04-26T05:21:59.720Z,0.50
2023-04-26T05:24:31.185Z,0.93
2023-04-26T05:26:59.583Z,0.60
2023-04-26T05:29:30.997Z,0.65
2023-04-26T05:31:58.879Z,1.10
2023-04-26T05:34:26.816Z,1.13
2023-04-26T05:36:54.515Z,1.65
2023-04-26T05:39:23.051Z,1.48
2023-04-26T05:41:52.520Z,1.23
2023-04-26T05:44:20.661Z,0.75
2023-04-26T05:46:48.468Z,0.80
2023-04-26T05:49:16.458Z,1.00
2023-04-26T05:51:44.237Z,1.42
2023-04-26T05:54:11.946Z,1.17
2023-04-26T05:56:39.651Z,1.33
2023-04-26T05:59:09.517Z,1.08
2023-04-26T06:01:37.216Z,1.17
2023-04-26T06:04:05.954Z,1.00
2023-04-26T06:06:34.347Z,1.10
2023-04-26T06:09:02.278Z,1.55
2023-04-26T06:11:30.037Z,1.20
2023-04-26T06:13:57.696Z,1.52
2023-04-26T06:16:26.790Z,1.60
2023-04-26T06:18:54.594Z,1.17
2023-04-26T06:21:22.325Z,1.05
2023-04-26T06:23:50.504Z,1.20
2023-04-26T06:26:18.499Z,1.20
2023-04-26T06:28:46.386Z,1.08
2023-04-26T06:31:14.146Z,1.02
2023-04-26T06:33:43.244Z,1.80
2023-04-26T06:36:13.311Z,1.20
2023-04-26T06:38:41.227Z,1.40
2023-04-26T06:41:09.342Z,1.10
2023-04-26T06:43:37.095Z,1.10
2023-04-26T06:46:04.860Z,1.30
2023-04-26T06:48:32.576Z,1.42
2023-04-26T06:51:07.154Z,1.27
2023-04-26T06:53:34.993Z,1.52
2023-04-26T06:56:02.845Z,1.80
2023-04-26T06:58:31.085Z,1.73
2023-04-26T07:00:58.797Z,1.58
2023-04-26T07:03:26.837Z,1.48
2023-04-26T07:05:56.276Z,1.13
2023-04-26T07:08:25.908Z,1.75
2023-04-26T07:10:55.250Z,1.60
2023-04-26T07:13:23.400Z,1.73
2023-04-26T07:15:51.988Z,1.17
2023-04-26T07:18:19.971Z,1.63
2023-04-26T07:20:47.721Z,1.60
2023-04-26T07:23:15.501Z,1.48
2023-04-26T07:25:44.546Z,1.63
2023-04-26T07:28:12.406Z,1.98
2023-04-26T07:30:40.494Z,1.33
2023-04-26T07:33:08.423Z,1.33
2023-04-26T07:35:36.277Z,1.13
2023-04-26T07:38:04.246Z,1.60
2023-04-26T07:40:32.182Z,1.00
2023-04-26T07:43:01.527Z,1.08
2023-04-26T07:45:29.377Z,1.70
2023-04-26T07:47:57.269Z,1.58
2023-04-26T07:50:25.848Z,1.10
2023-04-26T07:52:53.633Z,2.22
2023-04-26T07:55:21.680Z,1.48
2023-04-26T07:57:49.449Z,1.98
2023-04-26T08:00:22.221Z,1.50
2023-04-26T08:02:50.355Z,2.15
2023-04-26T08:05:18.633Z,1.67
2023-04-26T08:07:46.563Z,2.20
2023-04-26T08:10:14.315Z,2.03
2023-04-26T08:12:42.071Z,1.85
2023-04-26T08:15:11.670Z,1.60
2023-04-26T08:17:41.409Z,1.95
2023-04-26T08:20:10.715Z,1.23
2023-04-26T08:22:38.413Z,1.35
2023-04-26T08:25:07.091Z,2.17
2023-04-26T08:27:35.847Z,1.60
2023-04-26T08:30:03.731Z,1.45
2023-04-26T08:32:33.919Z,2.00
2023-04-26T08:35:03.184Z,1.55
2023-04-26T08:37:31.582Z,1.95
2023-04-26T08:39:59.437Z,2.35
2023-04-26T08:42:29.421Z,2.10
2023-04-26T08:45:03.173Z,1.30
2023-04-26T08:47:42.186Z,2.17
2023-04-26T08:50:14.750Z,1.80
2023-04-26T08:52:44.441Z,1.77
2023-04-26T08:55:14.395Z,2.08
2023-04-26T08:57:43.890Z,2.13
2023-04-26T09:00:13.592Z,1.83
2023-04-26T09:02:42.921Z,1.77
2023-04-26T09:05:12.834Z,2.05
2023-04-26T09:07:43.688Z,1.88
2023-04-26T09:10:13.459Z,2.20
2023-04-26T09:12:41.633Z,2.53
2023-04-26T09:15:11.436Z,1.52
2023-04-26T09:17:41.660Z,1.63
2023-04-26T09:20:23.731Z,1.80
2023-04-26T09:22:53.103Z,1.55
2023-04-26T09:25:30.297Z,1.52
2023-04-26T09:27:58.994Z,1.80
2023-04-26T09:30:27.889Z,1.42
2023-04-26T09:32:58.727Z,2.17
2023-04-26T09:35:30.869Z,1.83
2023-04-26T09:38:07.897Z,2.42
2023-04-26T09:40:42.123Z,1.48
2023-04-26T09:43:12.927Z,2.03
2023-04-26T09:45:49.039Z,1.27
2023-04-26T09:48:22.814Z,1.48
2023-04-26T09:50:54.450Z,1.15
2023-04-26T09:53:33.253Z,1.40
2023-04-26T09:56:11.083Z,1.33
2023-04-26T09:58:41.523Z,1.30
2023-04-26T10:01:10.041Z,1.27
2023-04-26T10:03:38.835Z,1.13
2023-04-26T10:06:08.975Z,1.52
2023-04-26T10:08:37.233Z,1.40
2023-04-26T10:11:07.465Z,1.70
2023-04-26T10:13:35.882Z,1.70
2023-04-26T10:16:06.494Z,1.25
2023-04-26T10:18:34.632Z,1.08
2023-04-26T10:21:11.454Z,1.50
2023-04-26T10:23:41.404Z,1.50
2023-04-26T10:26:50.254Z,1.48
2023-04-26T10:29:18.498Z,1.13
2023-04-26T10:32:10.594Z,1.52
2023-04-26T10:34:38.918Z,1.15
2023-04-26T10:37:12.442Z,1.45
2023-04-26T10:39:41.242Z,1.45
2023-04-26T10:42:28.052Z,1.50
2023-04-26T10:44:56.991Z,1.70
2023-04-26T10:47:31.931Z,1.20
2023-04-26T10:50:07.100Z,1.10
2023-04-26T10:52:36.135Z,1.30
2023-04-26T10:55:05.178Z,1.30
2023-04-26T10:57:52.243Z,1.02
2023-04-26T11:00:32.619Z,1.17
2023-04-26T11:03:12.628Z,1.63
2023-04-26T11:05:54.101Z,1.30
2023-04-26T11:08:26.263Z,1.55
2023-04-26T11:11:05.957Z,1.27
2023-04-26T11:13:37.381Z,1.65
2023-04-26T11:16:06.973Z,1.80
2023-04-26T11:18:37.407Z,1.50
2023-04-26T11:21:06.884Z,1.33
2023-04-26T11:23:35.696Z,1.42
2023-04-26T11:26:06.401Z,1.40
2023-04-26T11:28:37.558Z,1.25
2023-04-26T11:31:08.171Z,1.52
2023-04-26T11:33:35.965Z,1.80
2023-04-26T11:36:04.555Z,1.25
2023-04-26T11:38:32.270Z,1.48
2023-04-26T11:41:03.082Z,1.58
2023-04-26T11:43:37.418Z,1.20
2023-04-26T11:46:07.053Z,1.63
2023-04-26T11:48:37.577Z,1.90
2023-04-26T11:51:16.874Z,1.42
2023-04-26T11:53:45.516Z,1.73
2023-04-26T11:56:19.917Z,1.70
2023-04-26T11:58:51.102Z,1.80
2023-04-26T12:01:24.523Z,1.60
2023-04-26T12:03:53.958Z,1.90
2023-04-26T12:06:31.140Z,1.70
2023-04-26T12:08:59.170Z,1.40
2023-04-26T12:11:27.593Z,1.88
2023-04-26T12:13:59.521Z,1.55
2023-04-26T12:16:27.515Z,1.00
2023-04-26T12:18:56.582Z,1.65
2023-04-26T12:21:26.152Z,1.27
2023-04-26T12:23:55.200Z,1.48
2023-04-26T12:26:22.924Z,1.58
2023-04-26T12:28:50.769Z,1.50
2023-04-26T12:31:19.840Z,1.65
2023-04-26T12:33:47.977Z,1.40
2023-04-26T12:36:16.809Z,1.25
2023-04-26T12:38:44.516Z,1.38
2023-04-26T12:41:12.194Z,1.60
2023-04-26T12:43:40.307Z,1.50
2023-04-26T12:46:08.172Z,1.20
2023-04-26T12:48:38.134Z,1.52
2023-04-26T12:51:06.785Z,1.42
2023-04-26T12:53:34.687Z,1.23
2023-04-26T12:56:02.395Z,0.85
2023-04-26T12:58:30.358Z,1.52
2023-04-26T13:00:58.084Z,1.45
2023-04-26T13:03:26.105Z,1.83
2023-04-26T13:05:55.936Z,1.23
2023-04-26T13:08:24.350Z,1.38
2023-04-26T13:10:52.169Z,1.83
2023-04-26T13:13:22.034Z,1.45
2023-04-26T13:15:54.301Z,1.58
2023-04-26T13:18:22.155Z,1.75
2023-04-26T13:20:49.925Z,1.20
2023-04-26T13:23:18.927Z,1.00
2023-04-26T13:25:46.653Z,1.45
2023-04-26T13:28:14.713Z,1.33
2023-04-26T13:30:42.752Z,1.52
2023-04-26T13:33:10.949Z,1.30
2023-04-26T13:35:38.767Z,1.45
2023-04-26T13:38:06.565Z,1.55
2023-04-26T13:40:35.846Z,1.60
2023-04-26T13:43:03.859Z,1.48
2023-04-26T13:45:31.558Z,1.65
2023-04-26T13:47:59.291Z,2.05
2023-04-26T13:50:27.254Z,1.70
2023-04-26T13:52:55.076Z,1.58
2023-04-26T13:55:23.076Z,1.20
2023-04-26T13:57:52.087Z,1.90
2023-04-26T14:00:20.919Z,1.50
2023-04-26T14:02:49.416Z,1.40
2023-04-26T14:05:17.697Z,1.63
2023-04-26T14:07:45.852Z,1.38
2023-04-26T14:10:14.047Z,1.50
2023-04-26T14:12:42.167Z,1.65
2023-04-26T14:15:13.039Z,2.00
2023-04-26T14:17:40.795Z,1.65
2023-04-26T14:20:10.880Z,1.50
2023-04-26T14:22:38.734Z,1.90
2023-04-26T14:25:07.752Z,1.48
2023-04-26T14:27:36.031Z,1.50
2023-04-26T14:30:04.544Z,1.50
2023-04-26T14:32:34.048Z,1.10
2023-04-26T14:35:01.744Z,1.90
2023-04-26T14:37:29.508Z,1.55
2023-04-26T14:39:57.408Z,1.67
2023-04-26T14:42:25.179Z,1.10
2023-04-26T14:44:53.003Z,1.42
2023-04-26T14:47:20.782Z,1.75
2023-04-26T14:49:49.825Z,1.65
2023-04-26T14:52:17.829Z,1.50
2023-04-26T14:54:45.654Z,1.38
2023-04-26T14:57:13.411Z,1.70
2023-04-26T14:59:42.089Z,1.80
2023-04-26T15:02:09.798Z,1.65
2023-04-26T15:04:37.949Z,1.73
2023-04-26T15:07:13.071Z,1.10
2023-04-26T15:09:48.592Z,1.25
2023-04-26T15:12:16.570Z,1.30
2023-04-26T15:14:44.264Z,1.58
2023-04-26T15:17:12.071Z,1.67
2023-04-26T15:19:39.940Z,1.35
2023-04-26T15:22:08.959Z,1.70
2023-04-26T15:24:37.330Z,1.13
2023-04-26T15:27:05.772Z,1.25
2023-04-26T15:29:33.794Z,1.50
2023-04-26T15:32:01.804Z,2.03
2023-04-26T15:34:30.110Z,1.50
2023-04-26T15:37:00.690Z,1.15
2023-04-26T15:39:29.734Z,1.60
2023-04-26T15:41:57.725Z,1.40
2023-04-26T15:44:25.493Z,1.98
2023-04-26T15:46:53.186Z,1.20
2023-04-26T15:49:21.167Z,1.88
2023-04-26T15:51:48.905Z,1.20
2023-04-26T15:54:16.833Z,1.73
2023-04-26T15:56:47.597Z,1.35
2023-04-26T15:59:15.666Z,1.30
2023-04-26T16:01:43.479Z,1.45
2023-04-26T16:04:11.535Z,1.52
2023-04-26T16:06:39.420Z,1.42
2023-04-26T16:09:17.180Z,1.48
2023-04-26T16:11:53.771Z,1.50
2023-04-26T16:14:21.642Z,1.65
2023-04-26T16:16:49.319Z,1.58
2023-04-26T16:19:17.250Z,1.25
2023-04-26T16:21:44.958Z,1.40
2023-04-26T16:24:12.675Z,1.63
2023-04-26T16:26:40.947Z,1.60
2023-04-26T16:29:10.087Z,1.30
2023-04-26T16:31:37.848Z,1.90
2023-04-26T16:34:05.981Z,1.52
2023-04-26T16:36:33.807Z,1.60
2023-04-26T16:39:01.636Z,1.63
2023-04-26T16:41:29.350Z,1.95
2023-04-26T16:43:57.075Z,1.40
2023-04-26T16:46:26.851Z,1.52
2023-04-26T16:48:55.293Z,1.73
2023-04-26T16:51:23.345Z,1.15
2023-04-26T16:53:51.189Z,1.45
2023-04-26T16:56:19.104Z,1.45
2023-04-26T16:58:46.848Z,1.65
2023-04-26T17:01:14.635Z,1.38
2023-04-26T17:03:43.796Z,1.58
2023-04-26T17:06:11.730Z,1.48
2023-04-26T17:08:39.463Z,1.67
2023-04-26T17:11:07.729Z,1.40
2023-04-26T17:13:35.411Z,1.40
2023-04-26T17:16:03.508Z,2.10
2023-04-26T17:18:31.374Z,1.50
2023-04-26T17:21:01.608Z,1.83
2023-04-26T17:23:29.371Z,1.77
2023-04-26T17:25:57.151Z,1.98
2023-04-26T17:28:24.897Z,2.33
2023-04-26T17:30:52.692Z,2.08
2023-04-26T17:33:20.663Z,1.98
2023-04-26T17:35:48.592Z,1.42
2023-04-26T17:38:17.650Z,2.20
2023-04-26T17:40:45.438Z,1.52
2023-04-26T17:43:13.160Z,1.95
2023-04-26T17:45:40.948Z,1.63
2023-04-26T17:48:12.807Z,1.55
2023-04-26T17:50:41.036Z,1.92
2023-04-26T17:53:08.985Z,1.88
2023-04-26T17:55:38.291Z,1.77
2023-04-26T17:58:06.272Z,1.45
2023-04-26T18:00:33.988Z,1.90
2023-04-26T18:03:02.982Z,2.10
2023-04-26T18:05:31.627Z,1.52
2023-04-26T18:07:59.820Z,2.50
2023-04-26T18:10:27.604Z,1.85
2023-04-26T18:12:56.759Z,1.98
2023-04-26T18:15:25.642Z,1.67
2023-04-26T18:17:54.377Z,2.30
2023-04-26T18:20:22.572Z,1.60
2023-04-26T18:22:50.503Z,1.58
2023-04-26T18:25:18.228Z,2.00
2023-04-26T18:27:47.716Z,1.88
2023-04-26T18:30:18.169Z,2.33
2023-04-26T18:32:45.957Z,1.98
2023-04-26T18:35:13.911Z,1.60
2023-04-26T18:37:41.943Z,2.20
2023-04-26T18:40:11.752Z,1.70
2023-04-26T18:42:39.668Z,2.25
2023-04-26T18:45:09.367Z,2.13
2023-04-26T18:47:38.559Z,1.70
2023-04-26T18:50:07.917Z,1.90
2023-04-26T18:52:35.619Z,2.10
2023-04-26T18:55:03.397Z,2.03
2023-04-26T18:57:31.130Z,1.85
2023-04-26T19:00:11.675Z,2.72
2023-04-26T19:02:45.966Z,1.90
2023-04-26T19:05:14.686Z,2.00
2023-04-26T19:07:47.530Z,1.90
2023-04-26T19:10:18.760Z,2.00
2023-04-26T19:12:46.955Z,2.33
2023-04-26T19:15:22.860Z,1.77
2023-04-26T19:17:59.475Z,1.77
2023-04-26T19:20:27.849Z,1.55
2023-04-26T19:22:56.076Z,2.53
2023-04-26T19:25:24.669Z,2.20
2023-04-26T19:27:52.961Z,1.33
2023-04-26T19:30:22.055Z,1.73
2023-04-26T19:32:50.072Z,1.48
2023-04-26T19:35:21.887Z,1.60
2023-04-26T19:37:55.270Z,1.90
2023-04-26T19:40:25.265Z,1.70
2023-04-26T19:42:56.042Z,1.75
2023-04-26T19:45:24.127Z,1.73
2023-04-26T19:47:52.582Z,1.58
2023-04-26T19:50:24.264Z,1.67
2023-04-26T19:52:54.333Z,2.00
2023-04-26T19:55:28.223Z,2.00
2023-04-26T19:57:59.792Z,1.70
2023-04-26T20:00:30.196Z,1.75
2023-04-26T20:03:15.708Z,2.15
2023-04-26T20:06:50.191Z,1.55
2023-04-26T20:09:18.563Z,1.52
2023-04-26T20:11:53.202Z,2.03
2023-04-26T20:16:49.391Z,1.77
2023-04-26T20:19:19.732Z,1.55
2023-04-26T20:21:52.129Z,1.63
2023-04-26T20:24:20.859Z,1.65
2023-04-26T20:26:49.051Z,1.52
2023-04-26T20:29:22.208Z,2.10
2023-04-26T20:31:57.855Z,1.45
2023-04-26T20:34:31.066Z,1.85
2023-04-26T20:37:02.252Z,1.58
2023-04-26T20:39:36.406Z,1.60
2023-04-26T20:42:06.013Z,1.48
2023-04-26T20:44:33.821Z,1.60
2023-04-26T20:47:01.530Z,1.80
2023-04-26T20:49:30.282Z,1.88
2023-04-26T20:51:59.599Z,1.58
2023-04-26T20:54:27.334Z,1.33
2023-04-26T20:56:55.053Z,1.83
2023-04-26T20:59:24.499Z,1.65
2023-04-26T21:01:54.471Z,1.05
2023-04-26T21:04:22.602Z,1.60
2023-04-26T21:06:50.482Z,1.30
2023-04-26T21:09:19.595Z,1.33
2023-04-26T21:11:47.342Z,1.85
2023-04-26T21:14:15.084Z,1.67
2023-04-26T21:16:42.806Z,1.65
2023-04-26T21:19:10.961Z,2.08
2023-04-26T21:21:38.926Z,1.60
2023-04-26T21:24:07.150Z,1.40
2023-04-26T21:26:36.302Z,2.20
2023-04-26T21:29:04.119Z,1.85
2023-04-26T21:31:31.916Z,1.88
2023-04-26T21:34:00.018Z,1.92
2023-04-26T21:36:27.996Z,1.35
2023-04-26T21:38:55.764Z,1.73
2023-04-26T21:41:25.798Z,1.98
2023-04-26T21:43:55.137Z,2.30
2023-04-26T21:46:22.986Z,1.65
2023-04-26T21:48:50.768Z,1.63
2023-04-26T21:51:19.807Z,1.77
2023-04-26T21:53:47.522Z,1.42
2023-04-26T21:56:15.495Z,1.50
2023-04-26T21:58:43.600Z,1.60
2023-04-26T22:01:15.793Z,1.48
2023-04-26T22:03:44.457Z,1.60
2023-04-26T22:06:12.669Z,1.90
2023-04-26T22:08:41.347Z,1.60
2023-04-26T22:11:09.096Z,1.73
2023-04-26T22:13:36.822Z,1.85
2023-04-26T22:16:05.158Z,1.77
2023-04-26T22:18:35.290Z,2.17
2023-04-26T22:21:03.036Z,1.65
2023-04-26T22:23:31.300Z,1.77
2023-04-26T22:26:00.436Z,1.63
2023-04-26T22:28:28.160Z,1.73
2023-04-26T22:30:55.931Z,1.33
2023-04-26T22:33:23.688Z,1.60
2023-04-26T22:35:57.429Z,1.55
2023-04-26T22:38:25.339Z,1.10
2023-04-26T22:40:53.143Z,2.13
2023-04-26T22:43:20.890Z,1.35
2023-04-26T22:45:48.665Z,1.40
2023-04-26T22:48:16.752Z,1.70
2023-04-26T22:50:44.584Z,1.63
2023-04-26T22:53:13.611Z,1.58
2023-04-26T22:55:41.316Z,1.73
2023-04-26T22:58:09.189Z,1.40
2023-04-26T23:00:36.963Z,1.55
2023-04-26T23:03:04.904Z,1.60
2023-04-26T23:05:33.012Z,1.50
2023-04-26T23:08:00.717Z,1.50
2023-04-26T23:10:29.859Z,1.70
2023-04-26T23:12:57.609Z,1.33
2023-04-26T23:15:25.442Z,1.05
2023-04-26T23:17:53.881Z,1.30
2023-04-26T23:20:22.629Z,1.75
2023-04-26T23:22:50.438Z,1.60
2023-04-26T23:25:19.709Z,1.38
2023-04-26T23:27:48.836Z,1.20
2023-04-26T23:30:17.831Z,1.33
2023-04-26T23:32:45.706Z,1.90
2023-04-26T23:35:13.426Z,1.67
2023-04-26T23:37:41.337Z,1.30
2023-04-26T23:40:10.391Z,1.60
2023-04-26T23:42:38.106Z,1.60
2023-04-26T23:45:09.733Z,1.52
2023-04-26T23:47:37.504Z,1.77
2023-04-26T23:50:07.242Z,1.38
2023-04-26T23:52:34.998Z,1.40
2023-04-26T23:55:03.270Z,1.80
2023-04-26T23:57:30.993Z,1.20
2023-04-26T23:59:59.009Z,1.73
